sensor_id;sensor_type;location;lat;lon;timestamp;pressure;altitude;pressure_sealevel;temperature;humidity
26083;BME280;13848;49.018;12.078;2024-03-25T00:00:41;96688.06;;;4.17;86.20
26083;BME280;13848;49.018;12.078;2024-03-25T00:03:07;96690.75;;;4.30;85.59
26083;BME280;13848;49.018;12.078;2024-03-25T00:05:34;96688.91;;;4.31;85.73
26083;BME280;13848;49.018;12.078;2024-03-25T00:08:00;96694.84;;;4.26;85.47
26083;BME280;13848;49.018;12.078;2024-03-25T00:10:26;96697.53;;;4.13;86.52
26083;BME280;13848;49.018;12.078;2024-03-25T00:12:52;96695.88;;;4.12;86.50
26083;BME280;13848;49.018;12.078;2024-03-25T00:15:18;96690.34;;;4.13;86.88
26083;BME280;13848;49.018;12.078;2024-03-25T00:17:44;96695.88;;;4.12;86.51
26083;BME280;13848;49.018;12.078;2024-03-25T00:20:11;96691.97;;;4.21;86.87
26083;BME280;13848;49.018;12.078;2024-03-25T00:22:38;96689.72;;;4.31;86.48
26083;BME280;13848;49.018;12.078;2024-03-25T00:25:04;96687.22;;;4.49;85.01
26083;BME280;13848;49.018;12.078;2024-03-25T00:27:30;96697.28;;;4.47;85.13
26083;BME280;13848;49.018;12.078;2024-03-25T00:29:56;96694.22;;;4.37;85.53
26083;BME280;13848;49.018;12.078;2024-03-25T00:32:22;96693.69;;;4.93;89.48
26083;BME280;13848;49.018;12.078;2024-03-25T00:34:48;96688.03;;;5.59;90.77
26083;BME280;13848;49.018;12.078;2024-03-25T00:37:14;96691.53;;;5.22;84.74
26083;BME280;13848;49.018;12.078;2024-03-25T00:39:42;96694.59;;;4.61;84.27
26083;BME280;13848;49.018;12.078;2024-03-25T00:42:07;96694.19;;;4.57;84.98
26083;BME280;13848;49.018;12.078;2024-03-25T00:44:33;96688.44;;;4.40;85.53
26083;BME280;13848;49.018;12.078;2024-03-25T00:46:59;96696.09;;;4.23;86.21
26083;BME280;13848;49.018;12.078;2024-03-25T00:49:26;96681.91;;;4.36;86.04
26083;BME280;13848;49.018;12.078;2024-03-25T00:51:52;96692.97;;;4.33;85.75
26083;BME280;13848;49.018;12.078;2024-03-25T00:54:18;96688.66;;;4.45;85.56
26083;BME280;13848;49.018;12.078;2024-03-25T00:56:45;96690.75;;;4.30;85.45
26083;BME280;13848;49.018;12.078;2024-03-25T00:59:11;96694.22;;;4.44;85.47
26083;BME280;13848;49.018;12.078;2024-03-25T01:01:37;96694.19;;;4.50;84.72
26083;BME280;13848;49.018;12.078;2024-03-25T01:04:03;96691.75;;;4.49;84.52
26083;BME280;13848;49.018;12.078;2024-03-25T01:06:29;96688.84;;;4.50;84.89
26083;BME280;13848;49.018;12.078;2024-03-25T01:08:55;96686.38;;;4.56;84.86
26083;BME280;13848;49.018;12.078;2024-03-25T01:11:22;96688.44;;;4.40;84.54
26083;BME280;13848;49.018;12.078;2024-03-25T01:13:49;96692.59;;;4.36;85.01
26083;BME280;13848;49.018;12.078;2024-03-25T01:16:15;96692.97;;;4.33;85.81
26083;BME280;13848;49.018;12.078;2024-03-25T01:18:41;96693.41;;;4.43;84.93
26083;BME280;13848;49.018;12.078;2024-03-25T01:21:07;96694.19;;;4.57;84.78
26083;BME280;13848;49.018;12.078;2024-03-25T01:23:33;96695.22;;;4.49;85.00
26083;BME280;13848;49.018;12.078;2024-03-25T01:25:59;96691.78;;;4.36;84.68
26083;BME280;13848;49.018;12.078;2024-03-25T01:28:25;96691.78;;;4.36;85.75
26083;BME280;13848;49.018;12.078;2024-03-25T01:30:52;96690.50;;;4.45;85.18
26083;BME280;13848;49.018;12.078;2024-03-25T01:33:18;96690.09;;;4.48;84.37
26083;BME280;13848;49.018;12.078;2024-03-25T01:35:44;96686.84;;;4.26;85.24
26083;BME280;13848;49.018;12.078;2024-03-25T01:38:10;96683.94;;;4.34;85.31
26083;BME280;13848;49.018;12.078;2024-03-25T01:40:36;96683.94;;;4.47;84.61
26083;BME280;13848;49.018;12.078;2024-03-25T01:43:03;96679.63;;;4.60;84.20
26083;BME280;13848;49.018;12.078;2024-03-25T01:45:31;96685.97;;;4.65;83.72
26083;BME280;13848;49.018;12.078;2024-03-25T01:48:00;96686.00;;;4.59;83.97
26083;BME280;13848;49.018;12.078;2024-03-25T01:50:27;96691.75;;;4.49;83.76
26083;BME280;13848;49.018;12.078;2024-03-25T01:52:53;96683.50;;;4.57;84.33
26083;BME280;13848;49.018;12.078;2024-03-25T01:55:21;96690.50;;;4.51;84.60
26083;BME280;13848;49.018;12.078;2024-03-25T01:57:49;96679.41;;;4.54;83.79
26083;BME280;13848;49.018;12.078;2024-03-25T02:00:16;96676.94;;;4.60;83.67
26083;BME280;13848;49.018;12.078;2024-03-25T02:02:42;96680.66;;;4.59;83.35
26083;BME280;13848;49.018;12.078;2024-03-25T02:05:10;96675.72;;;4.56;83.85
26083;BME280;13848;49.018;12.078;2024-03-25T02:07:37;96675.69;;;4.62;82.96
26083;BME280;13848;49.018;12.078;2024-03-25T02:10:04;96674.88;;;4.62;84.09
26083;BME280;13848;49.018;12.078;2024-03-25T02:12:30;96680.22;;;4.62;82.56
26083;BME280;13848;49.018;12.078;2024-03-25T02:14:56;96673.66;;;4.58;82.99
26083;BME280;13848;49.018;12.078;2024-03-25T02:17:22;96672.44;;;4.53;82.84
26083;BME280;13848;49.018;12.078;2024-03-25T02:19:48;96675.94;;;4.47;83.25
26083;BME280;13848;49.018;12.078;2024-03-25T02:22:16;96675.50;;;4.50;84.01
26083;BME280;13848;49.018;12.078;2024-03-25T02:24:42;96684.56;;;4.49;83.54
26083;BME280;13848;49.018;12.078;2024-03-25T02:27:11;96681.47;;;4.52;83.18
26083;BME280;13848;49.018;12.078;2024-03-25T02:29:37;96678.16;;;4.64;82.33
26083;BME280;13848;49.018;12.078;2024-03-25T02:32:04;96683.28;;;4.72;82.36
26083;BME280;13848;49.018;12.078;2024-03-25T02:34:30;96681.88;;;4.49;83.12
26083;BME280;13848;49.018;12.078;2024-03-25T02:36:56;96682.31;;;4.33;84.00
26083;BME280;13848;49.018;12.078;2024-03-25T02:39:22;96684.78;;;4.41;83.93
26083;BME280;13848;49.018;12.078;2024-03-25T02:41:49;96689.66;;;4.58;83.27
26083;BME280;13848;49.018;12.078;2024-03-25T02:44:16;96687.22;;;4.49;82.50
26083;BME280;13848;49.018;12.078;2024-03-25T02:46:43;96687.44;;;4.41;82.88
26083;BME280;13848;49.018;12.078;2024-03-25T02:49:09;96683.53;;;4.37;82.82
26083;BME280;13848;49.018;12.078;2024-03-25T02:51:35;96694.63;;;4.47;83.36
26083;BME280;13848;49.018;12.078;2024-03-25T02:54:01;96691.75;;;4.42;83.11
26083;BME280;13848;49.018;12.078;2024-03-25T02:56:27;96692.16;;;4.52;82.92
26083;BME280;13848;49.018;12.078;2024-03-25T02:58:53;96697.09;;;4.49;82.24
26083;BME280;13848;49.018;12.078;2024-03-25T03:01:20;96699.34;;;4.39;82.58
26083;BME280;13848;49.018;12.078;2024-03-25T03:03:46;96702.44;;;4.42;82.41
26083;BME280;13848;49.018;12.078;2024-03-25T03:06:12;96698.31;;;4.33;82.85
26083;BME280;13848;49.018;12.078;2024-03-25T03:08:38;96705.50;;;4.52;82.75
26083;BME280;13848;49.018;12.078;2024-03-25T03:11:04;96703.03;;;4.38;82.75
26083;BME280;13848;49.018;12.078;2024-03-25T03:13:30;96708.38;;;4.31;82.78
26083;BME280;13848;49.018;12.078;2024-03-25T03:15:55;96710.66;;;4.21;83.06
26083;BME280;13848;49.018;12.078;2024-03-25T03:18:23;96712.09;;;4.30;82.96
26083;BME280;13848;49.018;12.078;2024-03-25T03:20:49;96716.38;;;4.44;82.67
26083;BME280;13848;49.018;12.078;2024-03-25T03:23:15;96717.63;;;4.35;82.35
26083;BME280;13848;49.018;12.078;2024-03-25T03:25:41;96727.47;;;4.41;82.18
26083;BME280;13848;49.018;12.078;2024-03-25T03:28:06;96727.84;;;4.51;81.69
26083;BME280;13848;49.018;12.078;2024-03-25T03:30:32;96726.66;;;4.41;82.02
26083;BME280;13848;49.018;12.078;2024-03-25T03:32:58;96725.22;;;4.38;82.21
26083;BME280;13848;49.018;12.078;2024-03-25T03:35:26;96730.53;;;4.51;82.03
26083;BME280;13848;49.018;12.078;2024-03-25T03:37:52;96736.69;;;4.45;82.56
26083;BME280;13848;49.018;12.078;2024-03-25T03:40:18;96730.75;;;4.50;82.39
26083;BME280;13848;49.018;12.078;2024-03-25T03:42:43;96736.09;;;4.50;82.40
26083;BME280;13848;49.018;12.078;2024-03-25T03:45:09;96734.63;;;4.61;82.21
26083;BME280;13848;49.018;12.078;2024-03-25T03:47:35;96732.16;;;4.66;81.18
26083;BME280;13848;49.018;12.078;2024-03-25T03:50:01;96738.13;;;4.68;81.70
26083;BME280;13848;49.018;12.078;2024-03-25T03:52:29;96732.97;;;4.73;81.83
26083;BME280;13848;49.018;12.078;2024-03-25T03:54:55;96732.81;;;4.41;81.52
26083;BME280;13848;49.018;12.078;2024-03-25T03:57:20;96727.03;;;4.51;82.23
26083;BME280;13848;49.018;12.078;2024-03-25T03:59:46;96729.13;;;4.42;81.94
26083;BME280;13848;49.018;12.078;2024-03-25T04:02:12;96744.53;;;4.47;82.08
26083;BME280;13848;49.018;12.078;2024-03-25T04:04:38;96738.53;;;4.65;81.77
26083;BME280;13848;49.018;12.078;2024-03-25T04:07:04;96745.09;;;4.75;81.42
26083;BME280;13848;49.018;12.078;2024-03-25T04:09:31;96737.94;;;4.49;82.06
26083;BME280;13848;49.018;12.078;2024-03-25T04:11:57;96740.00;;;4.47;81.78
26083;BME280;13848;49.018;12.078;2024-03-25T04:14:23;96734.63;;;4.61;81.85
26083;BME280;13848;49.018;12.078;2024-03-25T04:16:49;96737.72;;;4.51;82.23
26083;BME280;13848;49.018;12.078;2024-03-25T04:19:15;96737.34;;;4.47;81.72
26083;BME280;13848;49.018;12.078;2024-03-25T04:21:41;96741.00;;;4.33;82.68
26083;BME280;13848;49.018;12.078;2024-03-25T04:24:07;96748.41;;;4.38;82.32
26083;BME280;13848;49.018;12.078;2024-03-25T04:26:34;96747.16;;;4.34;83.13
26083;BME280;13848;49.018;12.078;2024-03-25T04:29:00;96746.56;;;4.38;81.99
26083;BME280;13848;49.018;12.078;2024-03-25T04:31:26;96747.19;;;4.27;82.77
26083;BME280;13848;49.018;12.078;2024-03-25T04:33:52;96759.91;;;4.38;83.26
26083;BME280;13848;49.018;12.078;2024-03-25T04:36:18;96757.66;;;4.48;82.52
26083;BME280;13848;49.018;12.078;2024-03-25T04:38:44;96750.47;;;4.42;82.85
26083;BME280;13848;49.018;12.078;2024-03-25T04:41:10;96754.78;;;4.37;82.35
26083;BME280;13848;49.018;12.078;2024-03-25T04:43:37;96755.19;;;4.14;82.76
26083;BME280;13848;49.018;12.078;2024-03-25T04:46:03;96755.38;;;4.19;83.67
26083;BME280;13848;49.018;12.078;2024-03-25T04:48:29;96754.97;;;4.22;83.35
26083;BME280;13848;49.018;12.078;2024-03-25T04:50:55;96764.22;;;4.13;83.68
26083;BME280;13848;49.018;12.078;2024-03-25T04:53:21;96771.19;;;4.14;82.95
26083;BME280;13848;49.018;12.078;2024-03-25T04:55:47;96776.72;;;4.25;83.21
26083;BME280;13848;49.018;12.078;2024-03-25T04:58:13;96768.50;;;4.40;82.61
26083;BME280;13848;49.018;12.078;2024-03-25T05:00:40;96776.53;;;4.47;82.74
26083;BME280;13848;49.018;12.078;2024-03-25T05:03:06;96771.81;;;4.49;82.81
26083;BME280;13848;49.018;12.078;2024-03-25T05:05:32;96784.13;;;4.57;81.75
26083;BME280;13848;49.018;12.078;2024-03-25T05:07:58;96778.38;;;4.73;82.05
26083;BME280;13848;49.018;12.078;2024-03-25T05:10:24;96781.63;;;4.75;81.15
26083;BME280;13848;49.018;12.078;2024-03-25T05:12:50;96777.97;;;4.76;81.40
26083;BME280;13848;49.018;12.078;2024-03-25T05:15:16;96777.53;;;4.79;80.60
26083;BME280;13848;49.018;12.078;2024-03-25T05:17:43;96789.84;;;4.80;80.20
26083;BME280;13848;49.018;12.078;2024-03-25T05:20:10;96791.91;;;4.78;80.40
26083;BME280;13848;49.018;12.078;2024-03-25T05:22:36;96794.38;;;4.46;81.82
26083;BME280;13848;49.018;12.078;2024-03-25T05:25:02;96799.31;;;4.49;81.24
26083;BME280;13848;49.018;12.078;2024-03-25T05:27:28;96794.81;;;4.70;80.47
26083;BME280;13848;49.018;12.078;2024-03-25T05:29:54;96800.13;;;4.83;80.99
26083;BME280;13848;49.018;12.078;2024-03-25T05:32:20;96793.97;;;4.83;80.76
26083;BME280;13848;49.018;12.078;2024-03-25T05:34:47;96792.31;;;4.88;80.08
26083;BME280;13848;49.018;12.078;2024-03-25T05:37:13;96806.06;;;4.98;79.69
26083;BME280;13848;49.018;12.078;2024-03-25T05:39:39;96797.88;;;4.93;79.90
26083;BME280;13848;49.018;12.078;2024-03-25T05:42:05;96805.66;;;5.01;80.56
26083;BME280;13848;49.018;12.078;2024-03-25T05:44:31;96804.22;;;4.92;80.20
26083;BME280;13848;49.018;12.078;2024-03-25T05:46:57;96811.19;;;5.06;79.77
26083;BME280;13848;49.018;12.078;2024-03-25T05:49:23;96807.47;;;5.14;79.70
26083;BME280;13848;49.018;12.078;2024-03-25T05:51:50;96806.22;;;5.10;78.99
26083;BME280;13848;49.018;12.078;2024-03-25T05:54:16;96810.75;;;5.10;79.36
26083;BME280;13848;49.018;12.078;2024-03-25T05:56:42;96816.31;;;5.15;78.77
26083;BME280;13848;49.018;12.078;2024-03-25T05:59:08;96810.75;;;5.23;79.84
26083;BME280;13848;49.018;12.078;2024-03-25T06:01:34;96817.72;;;5.24;79.76
26083;BME280;13848;49.018;12.078;2024-03-25T06:04:00;96815.84;;;5.31;78.80
26083;BME280;13848;49.018;12.078;2024-03-25T06:06:26;96823.03;;;5.37;78.54
26083;BME280;13848;49.018;12.078;2024-03-25T06:08:53;96823.44;;;5.47;78.37
26083;BME280;13848;49.018;12.078;2024-03-25T06:11:19;96829.19;;;5.51;78.61
26083;BME280;13848;49.018;12.078;2024-03-25T06:13:45;96836.97;;;5.59;78.30
26083;BME280;13848;49.018;12.078;2024-03-25T06:16:11;96833.03;;;5.61;78.20
26083;BME280;13848;49.018;12.078;2024-03-25T06:18:37;96839.44;;;5.54;77.89
26083;BME280;13848;49.018;12.078;2024-03-25T06:21:03;96839.06;;;5.37;77.22
26083;BME280;13848;49.018;12.078;2024-03-25T06:23:29;96839.03;;;5.50;78.17
26083;BME280;13848;49.018;12.078;2024-03-25T06:25:56;96846.03;;;5.51;77.81
26083;BME280;13848;49.018;12.078;2024-03-25T06:28:23;96844.38;;;5.57;76.89
26083;BME280;13848;49.018;12.078;2024-03-25T06:30:49;96848.22;;;5.68;77.72
26083;BME280;13848;49.018;12.078;2024-03-25T06:33:16;96848.78;;;5.83;77.38
26083;BME280;13848;49.018;12.078;2024-03-25T06:35:42;96852.41;;;6.15;77.19
26083;BME280;13848;49.018;12.078;2024-03-25T06:38:08;96856.13;;;6.07;74.47
26083;BME280;13848;49.018;12.078;2024-03-25T06:40:34;96853.94;;;6.29;75.12
26083;BME280;13848;49.018;12.078;2024-03-25T06:43:02;96856.34;;;6.37;73.58
26083;BME280;13848;49.018;12.078;2024-03-25T06:45:28;96857.34;;;6.11;73.12
26083;BME280;13848;49.018;12.078;2024-03-25T06:47:54;96858.41;;;6.42;75.00
26083;BME280;13848;49.018;12.078;2024-03-25T06:50:20;96861.25;;;6.47;73.46
26083;BME280;13848;49.018;12.078;2024-03-25T06:52:45;96859.94;;;6.25;75.04
26083;BME280;13848;49.018;12.078;2024-03-25T06:55:11;96861.72;;;6.37;74.62
26083;BME280;13848;49.018;12.078;2024-03-25T06:57:37;96857.34;;;6.43;73.46
26083;BME280;13848;49.018;12.078;2024-03-25T07:00:06;96852.63;;;6.95;72.99
26083;BME280;13848;49.018;12.078;2024-03-25T07:02:32;96848.63;;;6.86;71.63
26083;BME280;13848;49.018;12.078;2024-03-25T07:04:58;96852.06;;;6.93;70.05
26083;BME280;13848;49.018;12.078;2024-03-25T07:07:24;96855.22;;;7.08;70.77
26083;BME280;13848;49.018;12.078;2024-03-25T07:09:50;96851.56;;;7.03;70.76
26083;BME280;13848;49.018;12.078;2024-03-25T07:12:16;96857.94;;;7.27;69.34
26083;BME280;13848;49.018;12.078;2024-03-25T07:14:42;96859.06;;;7.19;70.34
26083;BME280;13848;49.018;12.078;2024-03-25T07:17:09;96866.34;;;7.30;68.48
26083;BME280;13848;49.018;12.078;2024-03-25T07:19:35;96862.69;;;7.25;68.67
26083;BME280;13848;49.018;12.078;2024-03-25T07:22:01;96867.34;;;7.11;67.78
26083;BME280;13848;49.018;12.078;2024-03-25T07:24:27;96870.09;;;7.04;67.75
26083;BME280;13848;49.018;12.078;2024-03-25T07:26:53;96865.03;;;6.96;68.20
26083;BME280;13848;49.018;12.078;2024-03-25T07:29:19;96870.47;;;7.33;68.72
26083;BME280;13848;49.018;12.078;2024-03-25T07:31:45;96860.63;;;7.27;67.41
26083;BME280;13848;49.018;12.078;2024-03-25T07:34:12;96865.66;;;7.16;66.25
26083;BME280;13848;49.018;12.078;2024-03-25T07:36:38;96872.72;;;7.11;67.02
26083;BME280;13848;49.018;12.078;2024-03-25T07:39:04;96867.84;;;7.01;66.38
26083;BME280;13848;49.018;12.078;2024-03-25T07:41:30;96864.16;;;7.02;66.35
26083;BME280;13848;49.018;12.078;2024-03-25T07:43:56;96867.72;;;6.64;65.33
26083;BME280;13848;49.018;12.078;2024-03-25T07:46:22;96866.84;;;6.71;66.18
26083;BME280;13848;49.018;12.078;2024-03-25T07:48:48;96866.91;;;6.89;65.77
26083;BME280;13848;49.018;12.078;2024-03-25T07:51:15;96863.81;;;6.92;65.36
26083;BME280;13848;49.018;12.078;2024-03-25T07:53:41;96866.53;;;7.10;65.77
26083;BME280;13848;49.018;12.078;2024-03-25T07:56:07;96865.69;;;7.35;66.74
26083;BME280;13848;49.018;12.078;2024-03-25T07:58:33;96860.38;;;7.28;63.94
26083;BME280;13848;49.018;12.078;2024-03-25T08:00:58;96861.94;;;6.92;64.08
26083;BME280;13848;49.018;12.078;2024-03-25T08:03:24;96868.00;;;7.06;64.04
26083;BME280;13848;49.018;12.078;2024-03-25T08:05:50;96864.53;;;7.49;63.48
26083;BME280;13848;49.018;12.078;2024-03-25T08:08:18;96867.94;;;7.74;63.37
26083;BME280;13848;49.018;12.078;2024-03-25T08:10:45;96871.16;;;7.83;62.80
26083;BME280;13848;49.018;12.078;2024-03-25T08:13:11;96866.00;;;7.63;62.85
26083;BME280;13848;49.018;12.078;2024-03-25T08:15:37;96875.25;;;7.86;62.78
26083;BME280;13848;49.018;12.078;2024-03-25T08:18:03;96873.16;;;7.88;62.61
26083;BME280;13848;49.018;12.078;2024-03-25T08:20:29;96876.88;;;8.23;62.20
26083;BME280;13848;49.018;12.078;2024-03-25T08:22:55;96877.88;;;8.71;60.45
26083;BME280;13848;49.018;12.078;2024-03-25T08:25:22;96883.63;;;8.26;59.07
26083;BME280;13848;49.018;12.078;2024-03-25T08:27:48;96878.66;;;8.11;60.93
26083;BME280;13848;49.018;12.078;2024-03-25T08:30:14;96879.41;;;7.82;59.75
26083;BME280;13848;49.018;12.078;2024-03-25T08:32:40;96882.19;;;7.93;61.09
26083;BME280;13848;49.018;12.078;2024-03-25T08:35:07;96887.41;;;8.07;60.34
26083;BME280;13848;49.018;12.078;2024-03-25T08:37:32;96886.28;;;7.96;60.06
26083;BME280;13848;49.018;12.078;2024-03-25T08:39:58;96885.56;;;7.89;59.55
26083;BME280;13848;49.018;12.078;2024-03-25T08:42:26;96884.63;;;7.58;58.61
26083;BME280;13848;49.018;12.078;2024-03-25T08:44:52;96885.19;;;7.42;59.16
26083;BME280;13848;49.018;12.078;2024-03-25T08:47:18;96885.75;;;7.69;59.69
26083;BME280;13848;49.018;12.078;2024-03-25T08:49:44;96896.06;;;7.90;59.87
26083;BME280;13848;49.018;12.078;2024-03-25T08:52:10;96887.31;;;7.77;57.74
26083;BME280;13848;49.018;12.078;2024-03-25T08:54:35;96880.31;;;7.76;58.18
26083;BME280;13848;49.018;12.078;2024-03-25T08:57:01;96887.94;;;7.97;57.94
26083;BME280;13848;49.018;12.078;2024-03-25T08:59:29;96887.28;;;7.83;58.05
26083;BME280;13848;49.018;12.078;2024-03-25T09:01:55;96885.69;;;7.94;58.99
26083;BME280;13848;49.018;12.078;2024-03-25T09:04:21;96885.94;;;8.22;59.63
26083;BME280;13848;49.018;12.078;2024-03-25T09:06:47;96892.84;;;8.00;57.87
26083;BME280;13848;49.018;12.078;2024-03-25T09:09:12;96889.41;;;7.93;59.23
26083;BME280;13848;49.018;12.078;2024-03-25T09:11:38;96891.06;;;8.12;58.52
26083;BME280;13848;49.018;12.078;2024-03-25T09:14:04;96887.03;;;8.03;57.52
26083;BME280;13848;49.018;12.078;2024-03-25T09:16:32;96885.16;;;8.52;58.47
26083;BME280;13848;49.018;12.078;2024-03-25T09:18:58;96885.97;;;8.83;56.46
26083;BME280;13848;49.018;12.078;2024-03-25T09:21:23;96885.50;;;8.86;55.89
26083;BME280;13848;49.018;12.078;2024-03-25T09:23:49;96894.34;;;8.74;54.32
26083;BME280;13848;49.018;12.078;2024-03-25T09:26:15;96894.81;;;9.72;56.99
26083;BME280;13848;49.018;12.078;2024-03-25T09:28:41;96885.03;;;10.06;52.41
26083;BME280;13848;49.018;12.078;2024-03-25T09:31:07;96886.72;;;9.83;54.45
26083;BME280;13848;49.018;12.078;2024-03-25T09:33:35;96881.59;;;9.47;52.24
26083;BME280;13848;49.018;12.078;2024-03-25T09:36:00;96883.41;;;8.88;53.57
26083;BME280;13848;49.018;12.078;2024-03-25T09:38:26;96898.25;;;8.90;53.92
26083;BME280;13848;49.018;12.078;2024-03-25T09:40:53;96885.06;;;8.89;53.27
26083;BME280;13848;49.018;12.078;2024-03-25T09:43:24;96885.00;;;8.65;52.86
26083;BME280;13848;49.018;12.078;2024-03-25T09:45:50;96882.63;;;8.57;53.07
26083;BME280;13848;49.018;12.078;2024-03-25T09:48:18;96887.34;;;8.73;52.36
26083;BME280;13848;49.018;12.078;2024-03-25T09:50:46;96885.22;;;9.29;57.78
26083;BME280;13848;49.018;12.078;2024-03-25T09:53:12;96876.25;;;10.10;54.00
26083;BME280;13848;49.018;12.078;2024-03-25T09:55:38;96879.31;;;10.43;56.61
26083;BME280;13848;49.018;12.078;2024-03-25T09:58:05;96875.75;;;10.54;56.04
26083;BME280;13848;49.018;12.078;2024-03-25T10:00:31;96867.38;;;10.84;53.26
26083;BME280;13848;49.018;12.078;2024-03-25T10:02:57;96869.09;;;10.16;52.27
26083;BME280;13848;49.018;12.078;2024-03-25T10:05:23;96867.88;;;10.35;50.73
26083;BME280;13848;49.018;12.078;2024-03-25T10:07:50;96863.84;;;10.66;52.63
26083;BME280;13848;49.018;12.078;2024-03-25T10:10:19;96863.84;;;10.50;48.44
26083;BME280;13848;49.018;12.078;2024-03-25T10:12:45;96858.53;;;9.74;48.58
26083;BME280;13848;49.018;12.078;2024-03-25T10:15:15;96857.88;;;9.96;50.31
26083;BME280;13848;49.018;12.078;2024-03-25T10:17:41;96868.63;;;10.48;50.27
26083;BME280;13848;49.018;12.078;2024-03-25T10:20:08;96857.94;;;10.53;50.09
26083;BME280;13848;49.018;12.078;2024-03-25T10:22:40;96843.94;;;11.18;48.11
26083;BME280;13848;49.018;12.078;2024-03-25T10:25:19;96847.22;;;11.37;46.77
26083;BME280;13848;49.018;12.078;2024-03-25T10:27:53;96850.56;;;10.77;42.61
26083;BME280;13848;49.018;12.078;2024-03-25T10:30:19;96840.13;;;10.80;46.44
26083;BME280;13848;49.018;12.078;2024-03-25T10:32:45;96829.25;;;11.09;44.95
26083;BME280;13848;49.018;12.078;2024-03-25T10:35:12;96835.41;;;11.60;43.76
26083;BME280;13848;49.018;12.078;2024-03-25T10:37:39;96833.31;;;11.28;43.66
26083;BME280;13848;49.018;12.078;2024-03-25T10:40:09;96836.06;;;11.50;44.06
26083;BME280;13848;49.018;12.078;2024-03-25T10:42:37;96828.25;;;11.32;42.73
26083;BME280;13848;49.018;12.078;2024-03-25T10:45:05;96834.31;;;10.88;43.44
26083;BME280;13848;49.018;12.078;2024-03-25T10:47:34;96824.09;;;11.07;43.19
26083;BME280;13848;49.018;12.078;2024-03-25T10:50:06;96817.09;;;12.06;43.81
26083;BME280;13848;49.018;12.078;2024-03-25T10:52:34;96801.25;;;13.75;42.63
26083;BME280;13848;49.018;12.078;2024-03-25T10:55:02;96800.50;;;13.95;42.67
26083;BME280;13848;49.018;12.078;2024-03-25T10:57:31;96800.47;;;13.37;42.38
26083;BME280;13848;49.018;12.078;2024-03-25T10:59:57;96801.44;;;13.21;40.45
26083;BME280;13848;49.018;12.078;2024-03-25T11:02:24;96821.66;;;12.27;38.83
26083;BME280;13848;49.018;12.078;2024-03-25T11:04:51;96807.44;;;11.88;40.61
26083;BME280;13848;49.018;12.078;2024-03-25T11:07:17;96810.84;;;11.61;41.22
26083;BME280;13848;49.018;12.078;2024-03-25T11:09:43;96807.44;;;11.71;42.45
26083;BME280;13848;49.018;12.078;2024-03-25T11:12:10;96801.00;;;11.72;41.63
26083;BME280;13848;49.018;12.078;2024-03-25T11:14:37;96801.31;;;12.46;41.21
26083;BME280;13848;49.018;12.078;2024-03-25T11:17:14;96800.28;;;11.38;40.91
26083;BME280;13848;49.018;12.078;2024-03-25T11:19:40;96800.28;;;9.97;42.31
26083;BME280;13848;49.018;12.078;2024-03-25T11:22:07;96801.28;;;10.64;43.97
26083;BME280;13848;49.018;12.078;2024-03-25T11:24:34;96802.78;;;12.05;41.60
26083;BME280;13848;49.018;12.078;2024-03-25T11:27:00;96797.25;;;12.44;40.73
26083;BME280;13848;49.018;12.078;2024-03-25T11:29:26;96796.94;;;12.13;40.82
26083;BME280;13848;49.018;12.078;2024-03-25T11:31:55;96791.03;;;11.72;41.16
26083;BME280;13848;49.018;12.078;2024-03-25T11:34:22;96791.50;;;11.69;41.60
26083;BME280;13848;49.018;12.078;2024-03-25T11:36:48;96782.44;;;11.97;41.85
26083;BME280;13848;49.018;12.078;2024-03-25T11:39:14;96783.63;;;11.85;41.32
26083;BME280;13848;49.018;12.078;2024-03-25T11:41:42;96773.56;;;12.02;40.44
26083;BME280;13848;49.018;12.078;2024-03-25T11:44:08;96767.47;;;12.12;40.99
26083;BME280;13848;49.018;12.078;2024-03-25T11:46:36;96766.09;;;11.87;41.04
26083;BME280;13848;49.018;12.078;2024-03-25T11:49:05;96761.16;;;11.40;40.25
26083;BME280;13848;49.018;12.078;2024-03-25T11:51:33;96765.25;;;10.71;41.17
26083;BME280;13848;49.018;12.078;2024-03-25T11:53:59;96767.28;;;10.47;42.42
26083;BME280;13848;49.018;12.078;2024-03-25T11:56:25;96754.03;;;10.96;42.92
26083;BME280;13848;49.018;12.078;2024-03-25T11:58:51;96758.81;;;10.88;42.07
26083;BME280;13848;49.018;12.078;2024-03-25T12:01:17;96746.81;;;10.96;42.65
26083;BME280;13848;49.018;12.078;2024-03-25T12:03:43;96750.34;;;11.18;42.39
26083;BME280;13848;49.018;12.078;2024-03-25T12:06:10;96755.13;;;11.33;41.73
26083;BME280;13848;49.018;12.078;2024-03-25T12:08:36;96746.34;;;11.21;41.93
26083;BME280;13848;49.018;12.078;2024-03-25T12:11:02;96743.78;;;11.97;41.60
26083;BME280;13848;49.018;12.078;2024-03-25T12:13:28;96741.56;;;12.16;41.08
26083;BME280;13848;49.018;12.078;2024-03-25T12:15:55;96726.63;;;13.04;40.95
26083;BME280;13848;49.018;12.078;2024-03-25T12:18:21;96735.56;;;13.10;42.65
26083;BME280;13848;49.018;12.078;2024-03-25T12:20:47;96724.97;;;13.03;41.50
26083;BME280;13848;49.018;12.078;2024-03-25T12:23:14;96725.47;;;11.77;40.31
26083;BME280;13848;49.018;12.078;2024-03-25T12:25:40;96719.44;;;12.83;40.75
26083;BME280;13848;49.018;12.078;2024-03-25T12:28:08;96723.19;;;13.72;40.99
26083;BME280;13848;49.018;12.078;2024-03-25T12:30:41;96723.84;;;13.37;42.25
26083;BME280;13848;49.018;12.078;2024-03-25T12:33:14;96716.22;;;13.96;39.46
26083;BME280;13848;49.018;12.078;2024-03-25T12:35:40;96712.00;;;14.56;39.15
26083;BME280;13848;49.018;12.078;2024-03-25T12:38:06;96707.41;;;14.52;38.24
26083;BME280;13848;49.018;12.078;2024-03-25T12:40:33;96705.25;;;13.55;37.46
26083;BME280;13848;49.018;12.078;2024-03-25T12:42:59;96702.84;;;13.12;38.62
26083;BME280;13848;49.018;12.078;2024-03-25T12:45:25;96698.66;;;14.09;38.02
26083;BME280;13848;49.018;12.078;2024-03-25T12:47:51;96691.38;;;14.76;36.79
26083;BME280;13848;49.018;12.078;2024-03-25T12:50:17;96684.03;;;14.92;34.66
26083;BME280;13848;49.018;12.078;2024-03-25T12:52:43;96689.69;;;14.14;34.95